Meteorología y climatología de Navarra
Datos de la estación - Meteo Navarra

Estación de Iñarbegi GN

Altitud 585 m.


Datos desde el 12/09/2019 hasta el 13/09/2019 en horario solar
Los datos son PROVISIONALES

Anterior Página 1 de 1 Siguiente Descargar: Formato para Excel 2000 o superior   Formato csv   Formato para OpenOffice Calc
Fecha Temperatura Humedad relativa Radiación global Insolación Precipitación Vel. viento 10 m Vel. viento 10 m Dir. viento 10 m
ºC % W/m² s l/m² m/s km/h º
12/09/2019 0:00 9.6 91 - - - - 0.0 - - - - - -
12/09/2019 0:10 9.3 92 - - - - 0.0 - - - - - -
12/09/2019 0:20 9.3 93 - - - - 0.0 - - - - - -
12/09/2019 0:30 8.9 94 - - - - 0.0 - - - - - -
12/09/2019 0:40 9.0 95 - - - - 0.0 - - - - - -
12/09/2019 0:50 9.4 95 - - - - 0.0 - - - - - -
12/09/2019 1:00 9.4 95 - - - - 0.0 - - - - - -
12/09/2019 1:10 9.2 95 - - - - 0.0 - - - - - -
12/09/2019 1:20 9.1 96 - - - - 0.0 - - - - - -
12/09/2019 1:30 9.3 98 - - - - 0.0 - - - - - -
12/09/2019 1:40 9.5 97 - - - - 0.0 - - - - - -
12/09/2019 1:50 9.5 100 - - - - 0.0 - - - - - -
12/09/2019 2:00 9.7 99 - - - - 0.0 - - - - - -
12/09/2019 2:10 9.5 100 - - - - 0.0 - - - - - -
12/09/2019 2:20 9.6 99 - - - - 0.0 - - - - - -
12/09/2019 2:30 9.4 100 - - - - 0.0 - - - - - -
12/09/2019 2:40 9.3 100 - - - - 0.0 - - - - - -
12/09/2019 2:50 9.2 100 - - - - 0.0 - - - - - -
12/09/2019 3:00 9.0 100 - - - - 0.0 - - - - - -
12/09/2019 3:10 8.7 100 - - - - 0.0 - - - - - -
12/09/2019 3:20 9.0 100 - - - - 0.0 - - - - - -
12/09/2019 3:30 9.3 100 - - - - 0.0 - - - - - -
12/09/2019 3:40 9.5 100 - - - - 0.0 - - - - - -
12/09/2019 3:50 9.2 100 - - - - 0.0 - - - - - -
12/09/2019 4:00 9.4 100 - - - - 0.0 - - - - - -
12/09/2019 4:10 9.5 100 - - - - 0.0 - - - - - -
12/09/2019 4:20 10.0 100 - - - - 0.0 - - - - - -
12/09/2019 4:30 9.9 100 - - - - 0.0 - - - - - -
12/09/2019 4:40 9.3 100 - - - - 0.0 - - - - - -
12/09/2019 4:50 10.0 100 - - - - 0.0 - - - - - -
12/09/2019 5:00 9.6 100 - - - - 0.0 - - - - - -
12/09/2019 5:10 9.5 100 - - - - 0.0 - - - - - -
12/09/2019 5:20 9.5 100 - - - - 0.0 - - - - - -
12/09/2019 5:30 9.7 100 - - - - 0.0 - - - - - -
12/09/2019 5:40 9.3 100 - - - - 0.0 - - - - - -
12/09/2019 5:50 9.0 100 - - - - 0.0 - - - - - -
12/09/2019 6:00 9.0 100 - - - - 0.0 - - - - - -
12/09/2019 6:10 9.1 100 - - - - 0.0 - - - - - -
12/09/2019 6:20 9.1 100 - - - - 0.0 - - - - - -
12/09/2019 6:30 9.2 100 - - - - 0.0 - - - - - -
12/09/2019 6:40 9.5 100 - - - - 0.0 - - - - - -
12/09/2019 6:50 9.8 100 - - - - 0.0 - - - - - -
12/09/2019 7:00 10.3 100 - - - - 0.0 - - - - - -
12/09/2019 7:10 10.8 100 - - - - 0.0 - - - - - -
12/09/2019 7:20 11.0 100 - - - - 0.0 - - - - - -
12/09/2019 7:30 11.7 97 - - - - 0.0 - - - - - -
12/09/2019 7:40 12.6 93 - - - - 0.0 - - - - - -
12/09/2019 7:50 12.9 91 - - - - 0.0 - - - - - -
12/09/2019 8:00 13.3 89 - - - - 0.0 - - - - - -
12/09/2019 8:10 13.6 88 - - - - 0.0 - - - - - -
12/09/2019 8:20 14.0 85 - - - - 0.0 - - - - - -
12/09/2019 8:30 14.8 82 - - - - 0.0 - - - - - -
12/09/2019 8:40 14.9 82 - - - - 0.0 - - - - - -
12/09/2019 8:50 15.0 81 - - - - 0.0 - - - - - -
12/09/2019 9:00 15.4 82 - - - - 0.0 - - - - - -
12/09/2019 9:10 15.7 80 - - - - 0.0 - - - - - -
12/09/2019 9:20 16.1 79 - - - - 0.0 - - - - - -
12/09/2019 9:30 16.5 78 - - - - 0.0 - - - - - -
12/09/2019 9:40 16.7 77 - - - - 0.0 - - - - - -
12/09/2019 9:50 17.1 74 - - - - 0.0 - - - - - -
12/09/2019 10:00 17.8 72 - - - - 0.0 - - - - - -
12/09/2019 10:10 18.0 70 - - - - 0.0 - - - - - -
12/09/2019 10:20 18.3 69 - - - - 0.0 - - - - - -
12/09/2019 10:30 18.9 68 - - - - 0.0 - - - - - -
12/09/2019 10:40 19.3 66 - - - - 0.0 - - - - - -
12/09/2019 10:50 19.7 64 - - - - 0.0 - - - - - -
12/09/2019 11:00 20.5 63 - - - - 0.0 - - - - - -
12/09/2019 11:10 20.8 59 - - - - 0.0 - - - - - -
12/09/2019 11:20 21.1 53 - - - - 0.0 - - - - - -
12/09/2019 11:30 21.4 50 - - - - 0.0 - - - - - -
12/09/2019 11:40 21.1 51 - - - - 0.0 - - - - - -
12/09/2019 11:50 20.9 53 - - - - 0.0 - - - - - -
12/09/2019 12:00 21.1 53 - - - - 0.0 - - - - - -
12/09/2019 12:10 21.3 53 - - - - 0.0 - - - - - -
12/09/2019 12:20 21.6 53 - - - - 0.0 - - - - - -
12/09/2019 12:30 21.5 56 - - - - 0.0 - - - - - -
12/09/2019 12:40 21.8 55 - - - - 0.0 - - - - - -
12/09/2019 12:50 22.1 54 - - - - 0.0 - - - - - -
12/09/2019 13:00 22.3 56 - - - - 0.0 - - - - - -
12/09/2019 13:10 22.1 55 - - - - 0.0 - - - - - -
12/09/2019 13:20 22.0 56 - - - - 0.0 - - - - - -
12/09/2019 13:30 22.0 56 - - - - 0.0 - - - - - -
12/09/2019 13:40 22.3 57 - - - - 0.0 - - - - - -
12/09/2019 13:50 22.9 54 - - - - 0.0 - - - - - -
12/09/2019 14:00 22.4 55 - - - - 0.0 - - - - - -
12/09/2019 14:10 21.8 57 - - - - 0.0 - - - - - -
12/09/2019 14:20 21.9 56 - - - - 0.0 - - - - - -
12/09/2019 14:30 21.8 57 - - - - 0.0 - - - - - -
12/09/2019 14:40 21.8 56 - - - - 0.0 - - - - - -
12/09/2019 14:50 21.9 57 - - - - 0.0 - - - - - -
12/09/2019 15:00 22.0 56 - - - - 0.0 - - - - - -
12/09/2019 15:10 21.8 57 - - - - 0.0 - - - - - -
12/09/2019 15:20 21.9 56 - - - - 0.0 - - - - - -
12/09/2019 15:30 22.1 56 - - - - 0.0 - - - - - -
12/09/2019 15:40 22.0 57 - - - - 0.0 - - - - - -
12/09/2019 15:50 21.9 56 - - - - 0.0 - - - - - -
12/09/2019 16:00 21.9 56 - - - - 0.0 - - - - - -
12/09/2019 16:10 22.1 58 - - - - 0.0 - - - - - -
12/09/2019 16:20 22.0 57 - - - - 0.0 - - - - - -
12/09/2019 16:30 22.0 56 - - - - 0.0 - - - - - -
12/09/2019 16:40 21.7 56 - - - - 0.0 - - - - - -
12/09/2019 16:50 21.0 58 - - - - 0.0 - - - - - -
12/09/2019 17:00 20.5 60 - - - - 0.0 - - - - - -
12/09/2019 17:10 18.8 66 - - - - 0.0 - - - - - -
12/09/2019 17:20 18.1 68 - - - - 0.0 - - - - - -
12/09/2019 17:30 17.9 69 - - - - 0.0 - - - - - -
12/09/2019 17:40 17.9 70 - - - - 0.0 - - - - - -
12/09/2019 17:50 18.0 69 - - - - 0.0 - - - - - -
12/09/2019 18:00 18.0 69 - - - - 0.0 - - - - - -
12/09/2019 18:10 17.4 72 - - - - 0.0 - - - - - -
12/09/2019 18:20 17.2 72 - - - - 0.0 - - - - - -
12/09/2019 18:30 16.9 74 - - - - 0.0 - - - - - -
12/09/2019 18:40 16.8 74 - - - - 0.0 - - - - - -
12/09/2019 18:50 16.3 77 - - - - 0.0 - - - - - -
12/09/2019 19:00 15.9 78 - - - - 0.0 - - - - - -
12/09/2019 19:10 15.8 79 - - - - 0.0 - - - - - -
12/09/2019 19:20 15.6 80 - - - - 0.0 - - - - - -
12/09/2019 19:30 15.5 80 - - - - 0.0 - - - - - -
12/09/2019 19:40 15.5 80 - - - - 0.0 - - - - - -
12/09/2019 19:50 15.5 80 - - - - 0.0 - - - - - -
12/09/2019 20:00 15.2 81 - - - - 0.0 - - - - - -
12/09/2019 20:10 15.1 81 - - - - 0.0 - - - - - -
12/09/2019 20:20 15.3 80 - - - - 0.0 - - - - - -
12/09/2019 20:30 15.5 79 - - - - 0.0 - - - - - -
12/09/2019 20:40 15.8 77 - - - - 0.0 - - - - - -
12/09/2019 20:50 15.6 77 - - - - 0.0 - - - - - -
12/09/2019 21:00 15.5 78 - - - - 0.0 - - - - - -
12/09/2019 21:10 14.9 81 - - - - 0.0 - - - - - -
12/09/2019 21:20 15.0 82 - - - - 0.0 - - - - - -
12/09/2019 21:30 14.8 83 - - - - 0.0 - - - - - -
12/09/2019 21:40 14.6 83 - - - - 0.0 - - - - - -
12/09/2019 21:50 14.3 85 - - - - 0.0 - - - - - -
12/09/2019 22:00 13.9 87 - - - - 0.0 - - - - - -
12/09/2019 22:10 13.6 88 - - - - 0.0 - - - - - -
12/09/2019 22:20 13.6 91 - - - - 0.0 - - - - - -
12/09/2019 22:30 13.8 89 - - - - 0.0 - - - - - -
12/09/2019 22:40 13.3 90 - - - - 0.0 - - - - - -
12/09/2019 22:50 13.1 94 - - - - 0.0 - - - - - -
12/09/2019 23:00 12.7 96 - - - - 0.0 - - - - - -
12/09/2019 23:10 12.7 100 - - - - 0.0 - - - - - -
12/09/2019 23:20 12.6 100 - - - - 0.0 - - - - - -
12/09/2019 23:30 13.1 100 - - - - 0.0 - - - - - -
12/09/2019 23:40 13.4 97 - - - - 0.0 - - - - - -
12/09/2019 23:50 13.3 95 - - - - 0.0 - - - - - -
Anterior Página 1 de 1 Siguiente

NOTA: Tipo de datos según el color:
   - Valores diarios o 10 minutos correctos
   - Valores diarios calculados a partir de un número de datos 10 minutos menor que 144 y mayor que 120, o de un número de datos semihorarios menor que 48 y mayor que 40 (caso de las estaciones de Riegos de Navarra y del MARM)
   - Valores diez minutos estimados


Contacto        Enlaces        Aviso legal